createdAt,value
2018-05-04T00:01:06.322Z,51.80
2018-05-04T00:03:34.730Z,51.80
2018-05-04T00:06:03.093Z,51.80
2018-05-04T00:08:31.467Z,51.80
2018-05-04T00:10:59.859Z,51.80
2018-05-04T00:13:28.218Z,51.80
2018-05-04T00:15:56.596Z,51.80
2018-05-04T00:18:24.994Z,51.80
2018-05-04T00:20:53.353Z,51.80
2018-05-04T00:23:21.762Z,51.90
2018-05-04T00:25:50.026Z,52.00
2018-05-04T00:28:18.555Z,52.00
2018-05-04T00:30:46.894Z,52.60
2018-05-04T00:33:15.199Z,52.00
2018-05-04T00:35:43.626Z,52.00
2018-05-04T00:38:12.016Z,52.00
2018-05-04T00:40:40.703Z,52.00
2018-05-04T00:43:09.074Z,52.10
2018-05-04T00:45:37.449Z,52.00
2018-05-04T00:48:05.845Z,52.20
2018-05-04T00:50:34.101Z,52.00
2018-05-04T00:53:02.622Z,52.20
2018-05-04T00:55:31.285Z,52.20
2018-05-04T00:57:59.780Z,52.00
2018-05-04T01:00:28.027Z,52.10
2018-05-04T01:02:56.405Z,52.10
2018-05-04T01:05:24.726Z,52.20
2018-05-04T01:07:53.020Z,52.10
2018-05-04T01:10:21.283Z,52.20
2018-05-04T01:12:49.622Z,52.10
2018-05-04T01:15:18.008Z,51.90
2018-05-04T01:17:46.269Z,52.00
2018-05-04T01:20:14.718Z,52.00
2018-05-04T01:22:43.175Z,51.90
2018-05-04T01:25:11.559Z,51.90
2018-05-04T01:27:40.142Z,51.90
2018-05-04T01:30:08.420Z,51.90
2018-05-04T01:32:36.663Z,51.90
2018-05-04T01:35:04.974Z,52.00
2018-05-04T01:37:33.413Z,51.90
2018-05-04T01:40:01.806Z,51.90
2018-05-04T01:42:30.101Z,51.90
2018-05-04T01:44:58.387Z,51.80
2018-05-04T01:47:26.902Z,51.90
2018-05-04T01:49:55.942Z,51.90
2018-05-04T01:52:24.238Z,51.90
2018-05-04T01:54:52.631Z,51.90
2018-05-04T01:57:21.076Z,51.90
2018-05-04T01:59:49.741Z,51.80
2018-05-04T02:02:18.135Z,51.80
2018-05-04T02:04:46.401Z,51.80
2018-05-04T02:07:14.905Z,51.80
2018-05-04T02:09:43.175Z,51.70
2018-05-04T02:12:11.444Z,51.80
2018-05-04T02:14:39.701Z,51.80
2018-05-04T02:17:08.089Z,51.80
2018-05-04T02:19:36.358Z,51.80
2018-05-04T02:22:04.617Z,51.80
2018-05-04T02:24:33.254Z,51.90
2018-05-04T02:27:01.866Z,51.90
2018-05-04T02:29:30.305Z,51.90
2018-05-04T02:31:58.939Z,51.80
2018-05-04T02:34:27.687Z,51.90
2018-05-04T02:36:56.050Z,51.80
2018-05-04T02:39:24.305Z,51.90
2018-05-04T02:41:52.822Z,51.80
2018-05-04T02:44:21.327Z,51.90
2018-05-04T02:46:49.570Z,51.90
2018-05-04T02:49:17.958Z,52.00
2018-05-04T02:51:46.247Z,51.80
2018-05-04T02:54:14.729Z,51.80
2018-05-04T02:56:43.041Z,51.80
2018-05-04T02:59:12.066Z,51.90
2018-05-04T03:01:40.317Z,51.90
2018-05-04T03:04:08.839Z,51.90
2018-05-04T03:06:37.184Z,51.80
2018-05-04T03:09:06.231Z,51.90
2018-05-04T03:11:34.477Z,51.80
2018-05-04T03:14:02.901Z,51.80
2018-05-04T03:16:31.638Z,51.90
2018-05-04T03:19:00.044Z,51.90
2018-05-04T03:21:28.358Z,51.80
2018-05-04T03:23:56.752Z,51.80
2018-05-04T03:26:26.091Z,51.80
2018-05-04T03:28:54.478Z,51.80
2018-05-04T03:31:22.747Z,51.60
2018-05-04T03:33:51.159Z,51.70
2018-05-04T03:36:19.501Z,51.60
2018-05-04T03:38:47.966Z,51.60
2018-05-04T03:41:16.368Z,51.70
2018-05-04T03:43:44.714Z,51.70
2018-05-04T03:46:13.450Z,51.70
2018-05-04T03:48:41.882Z,51.70
2018-05-04T03:51:10.159Z,51.80
2018-05-04T03:53:38.806Z,51.70
2018-05-04T03:56:07.079Z,51.80
2018-05-04T03:58:47.079Z,51.80
2018-05-04T04:01:27.087Z,51.80
2018-05-04T04:04:16.179Z,52.40
2018-05-04T04:06:44.489Z,51.80
2018-05-04T04:09:12.763Z,51.80
2018-05-04T04:11:41.171Z,51.80
2018-05-04T04:14:09.471Z,51.80
2018-05-04T04:16:38.159Z,51.80
2018-05-04T04:19:06.526Z,51.80
2018-05-04T04:21:35.237Z,51.70
2018-05-04T04:24:03.673Z,51.80
2018-05-04T04:26:31.939Z,51.80
2018-05-04T04:29:00.658Z,51.70
2018-05-04T04:31:29.117Z,51.80
2018-05-04T04:33:57.451Z,51.80
2018-05-04T04:36:25.858Z,51.80
2018-05-04T04:38:54.275Z,51.80
2018-05-04T04:41:22.554Z,51.70
2018-05-04T04:43:50.819Z,51.80
2018-05-04T04:46:19.378Z,51.70
2018-05-04T04:48:48.386Z,51.70
2018-05-04T04:51:16.806Z,51.60
2018-05-04T04:53:45.127Z,51.60
2018-05-04T04:56:13.510Z,51.60
2018-05-04T04:58:41.906Z,51.60
2018-05-04T05:01:10.226Z,51.60
2018-05-04T05:03:39.253Z,51.90
2018-05-04T05:06:07.637Z,51.80
2018-05-04T05:08:53.196Z,52.00
2018-05-04T05:11:22.292Z,51.70
2018-05-04T05:13:51.521Z,51.60
2018-05-04T05:16:19.914Z,51.40
2018-05-04T05:18:48.507Z,51.40
2018-05-04T05:21:30.920Z,52.00
2018-05-04T05:24:11.906Z,52.20
2018-05-04T05:26:49.449Z,52.40
2018-05-04T05:29:22.025Z,52.90
2018-05-04T05:31:51.638Z,53.90
2018-05-04T05:34:22.717Z,53.40
2018-05-04T05:36:51.587Z,53.30
2018-05-04T05:39:20.155Z,53.00
2018-05-04T05:41:49.409Z,52.50
2018-05-04T05:44:18.454Z,52.40
2018-05-04T05:46:46.864Z,52.40
2018-05-04T05:49:15.144Z,52.40
2018-05-04T05:51:43.520Z,53.00
2018-05-04T05:54:11.966Z,53.00
2018-05-04T05:56:40.290Z,53.30
2018-05-04T05:59:08.778Z,53.50
2018-05-04T06:01:37.058Z,54.40
2018-05-04T06:04:05.799Z,54.00
2018-05-04T06:06:34.481Z,54.10
2018-05-04T06:09:02.897Z,54.50
2018-05-04T06:11:31.229Z,54.90
2018-05-04T06:13:59.562Z,54.50
2018-05-04T06:16:28.610Z,54.80
2018-05-04T06:18:57.015Z,54.80
2018-05-04T06:21:25.370Z,55.10
2018-05-04T06:23:53.696Z,56.00
2018-05-04T06:26:22.922Z,54.60
2018-05-04T06:28:51.431Z,54.60
2018-05-04T06:31:19.745Z,54.30
2018-05-04T06:33:48.605Z,53.10
2018-05-04T06:36:16.807Z,52.80
2018-05-04T06:38:45.129Z,52.70
2018-05-04T06:41:13.659Z,52.70
2018-05-04T06:43:42.015Z,53.10
2018-05-04T06:46:10.418Z,53.90
2018-05-04T06:48:38.797Z,53.50
2018-05-04T06:51:07.151Z,52.20
2018-05-04T06:53:35.422Z,48.00
2018-05-04T06:56:03.900Z,48.20
2018-05-04T06:58:32.529Z,49.80
2018-05-04T07:01:00.975Z,50.50
2018-05-04T07:03:29.255Z,52.00
2018-05-04T07:05:57.517Z,51.60
2018-05-04T07:08:25.789Z,52.10
2018-05-04T07:10:54.162Z,52.00
2018-05-04T07:13:22.560Z,52.60
2018-05-04T07:15:50.961Z,52.60
2018-05-04T07:18:19.277Z,52.60
2018-05-04T07:20:48.642Z,53.10
2018-05-04T07:23:17.023Z,53.00
2018-05-04T07:25:46.068Z,52.10
2018-05-04T07:28:15.740Z,52.00
2018-05-04T07:30:43.993Z,52.70
2018-05-04T07:33:12.354Z,53.10
2018-05-04T07:35:40.735Z,53.20
2018-05-04T07:38:09.011Z,53.30
2018-05-04T07:40:37.281Z,53.30
2018-05-04T07:43:05.628Z,53.30
2018-05-04T07:45:33.966Z,53.20
2018-05-04T07:48:02.278Z,53.20
2018-05-04T07:50:31.329Z,53.30
2018-05-04T07:52:59.609Z,53.20
2018-05-04T07:55:28.133Z,53.20
2018-05-04T07:57:56.386Z,53.20
2018-05-04T08:00:24.656Z,53.20
2018-05-04T08:02:52.953Z,53.10
2018-05-04T08:05:21.316Z,53.00
2018-05-04T08:07:50.583Z,53.10
2018-05-04T08:10:18.982Z,53.10
2018-05-04T08:12:47.359Z,53.20
2018-05-04T08:15:15.742Z,53.00
2018-05-04T08:17:44.056Z,53.00
2018-05-04T08:20:12.488Z,52.90
2018-05-04T08:22:40.826Z,52.90
2018-05-04T08:25:09.197Z,53.00
2018-05-04T08:27:38.234Z,51.20
2018-05-04T08:30:06.878Z,51.20
2018-05-04T08:32:35.230Z,49.10
2018-05-04T08:35:03.629Z,44.00
2018-05-04T08:37:32.064Z,43.80
2018-05-04T08:40:00.331Z,45.50
2018-05-04T08:42:28.834Z,47.10
2018-05-04T08:44:57.125Z,48.80
2018-05-04T08:47:25.508Z,50.20
2018-05-04T08:49:53.951Z,50.50
2018-05-04T08:52:22.269Z,52.40
2018-05-04T08:54:50.706Z,52.50
2018-05-04T08:57:19.053Z,52.70
2018-05-04T08:59:47.280Z,52.20
2018-05-04T09:02:15.525Z,52.00
2018-05-04T09:04:43.914Z,51.80
2018-05-04T09:07:12.316Z,52.20
2018-05-04T09:09:40.673Z,51.90
2018-05-04T09:12:09.098Z,51.50
2018-05-04T09:14:37.366Z,51.80
2018-05-04T09:17:05.826Z,51.80
2018-05-04T09:19:34.135Z,52.70
2018-05-04T09:22:03.165Z,49.60
2018-05-04T09:24:31.587Z,49.80
2018-05-04T09:26:59.871Z,50.80
2018-05-04T09:29:28.286Z,51.80
2018-05-04T09:31:57.317Z,52.00
2018-05-04T09:34:25.652Z,52.00
2018-05-04T09:36:54.118Z,52.20
2018-05-04T09:39:22.399Z,52.50
2018-05-04T09:41:51.129Z,52.50
2018-05-04T09:44:19.548Z,52.50
2018-05-04T09:46:47.838Z,52.40
2018-05-04T09:49:16.910Z,52.90
2018-05-04T09:51:45.184Z,52.10
2018-05-04T09:54:13.910Z,52.70
2018-05-04T09:56:42.961Z,52.50
2018-05-04T09:59:11.243Z,52.50
2018-05-04T10:01:39.646Z,52.50
2018-05-04T10:04:08.040Z,52.40
2018-05-04T10:06:37.083Z,52.20
2018-05-04T10:09:05.383Z,52.20
2018-05-04T10:11:33.634Z,52.00
2018-05-04T10:14:02.158Z,52.00
2018-05-04T10:16:30.894Z,52.00
2018-05-04T10:18:59.294Z,51.80
2018-05-04T10:21:27.617Z,51.90
2018-05-04T10:23:56.077Z,51.60
2018-05-04T10:26:24.417Z,51.20
2018-05-04T10:28:52.717Z,51.70
2018-05-04T10:31:21.189Z,52.60
2018-05-04T10:33:49.898Z,54.20
2018-05-04T10:36:18.258Z,53.20
2018-05-04T10:38:46.618Z,51.50
2018-05-04T10:41:14.813Z,52.70
2018-05-04T10:43:43.374Z,53.40
2018-05-04T10:46:11.775Z,52.90
2018-05-04T10:48:40.063Z,53.20
2018-05-04T10:51:08.543Z,53.80
2018-05-04T10:53:36.850Z,52.70
2018-05-04T10:56:05.294Z,52.60
2018-05-04T10:58:33.589Z,53.00
2018-05-04T11:01:02.330Z,52.70
2018-05-04T11:03:30.600Z,52.80
2018-05-04T11:05:59.050Z,52.90
2018-05-04T11:08:27.493Z,53.20
2018-05-04T11:10:55.791Z,52.80
2018-05-04T11:13:24.491Z,53.30
2018-05-04T11:15:53.518Z,53.30
2018-05-04T11:18:21.793Z,53.20
2018-05-04T11:20:50.062Z,52.80
2018-05-04T11:23:18.341Z,53.20
2018-05-04T11:25:47.896Z,52.10
2018-05-04T11:28:16.299Z,52.10
2018-05-04T11:30:44.727Z,52.30
2018-05-04T11:33:13.233Z,52.30
2018-05-04T11:35:41.513Z,52.30
2018-05-04T11:38:09.890Z,52.20
2018-05-04T11:40:38.185Z,51.80
2018-05-04T11:43:06.637Z,52.00
2018-05-04T11:45:34.902Z,52.00
2018-05-04T11:48:03.187Z,51.50
2018-05-04T11:50:33.002Z,51.40
2018-05-04T11:53:01.368Z,51.80
2018-05-04T11:55:29.710Z,51.70
2018-05-04T11:57:57.961Z,51.60
2018-05-04T12:00:26.474Z,51.70
2018-05-04T12:02:54.882Z,51.60
2018-05-04T12:05:23.511Z,52.10
2018-05-04T12:07:52.267Z,52.10
2018-05-04T12:10:20.625Z,52.10
2018-05-04T12:12:48.895Z,52.00
2018-05-04T12:15:17.158Z,51.80
2018-05-04T12:17:46.338Z,52.10
2018-05-04T12:20:15.369Z,53.40
2018-05-04T12:22:43.773Z,53.40
2018-05-04T12:25:12.086Z,53.30
2018-05-04T12:27:41.151Z,53.30
2018-05-04T12:30:09.553Z,53.30
2018-05-04T12:32:37.902Z,53.60
2018-05-04T12:35:06.243Z,54.00
2018-05-04T12:37:34.899Z,54.40
2018-05-04T12:40:03.170Z,55.90
2018-05-04T12:42:31.710Z,56.90
2018-05-04T12:45:00.108Z,56.10
2018-05-04T12:47:28.463Z,56.30
2018-05-04T12:49:56.797Z,56.40
2018-05-04T12:52:25.842Z,56.30
2018-05-04T12:54:54.251Z,55.70
2018-05-04T12:57:22.582Z,55.50
2018-05-04T12:59:50.951Z,55.40
2018-05-04T13:02:19.359Z,55.00
2018-05-04T13:04:47.974Z,55.10
2018-05-04T13:07:16.451Z,54.30
2018-05-04T13:09:44.798Z,51.10
2018-05-04T13:12:13.498Z,52.00
2018-05-04T13:14:42.187Z,54.60
2018-05-04T13:17:10.592Z,54.10
2018-05-04T13:19:38.883Z,53.90
2018-05-04T13:22:07.289Z,53.90
2018-05-04T13:24:35.686Z,53.80
2018-05-04T13:27:03.979Z,53.60
2018-05-04T13:29:32.241Z,53.50
2018-05-04T13:32:00.541Z,53.40
2018-05-04T13:34:28.898Z,53.30
2018-05-04T13:36:57.517Z,53.10
2018-05-04T13:39:25.872Z,53.00
2018-05-04T13:41:54.359Z,52.80
2018-05-04T13:44:22.728Z,50.50
2018-05-04T13:46:51.110Z,48.30
2018-05-04T13:49:19.512Z,46.10
2018-05-04T13:51:47.858Z,46.60
2018-05-04T13:54:16.494Z,46.70
2018-05-04T13:56:44.753Z,46.00
2018-05-04T13:59:13.022Z,45.30
2018-05-04T14:01:41.394Z,45.20
2018-05-04T14:04:09.670Z,46.10
2018-05-04T14:06:38.149Z,46.80
2018-05-04T14:09:06.459Z,47.30
2018-05-04T14:11:34.892Z,48.50
2018-05-04T14:14:03.289Z,48.80
2018-05-04T14:16:31.589Z,48.90
2018-05-04T14:19:00.078Z,49.00
2018-05-04T14:21:28.317Z,49.00
2018-05-04T14:23:56.798Z,48.60
2018-05-04T14:26:25.167Z,49.00
2018-05-04T14:28:53.573Z,48.90
2018-05-04T14:31:21.833Z,47.70
2018-05-04T14:33:50.305Z,48.90
2018-05-04T14:36:18.937Z,49.10
2018-05-04T14:38:47.410Z,49.40
2018-05-04T14:41:16.668Z,49.90
2018-05-04T14:43:45.111Z,49.90
2018-05-04T14:46:13.426Z,49.50
2018-05-04T14:48:41.830Z,49.60
2018-05-04T14:51:10.523Z,49.50
2018-05-04T14:53:38.868Z,49.60
2018-05-04T14:56:07.139Z,49.50
2018-05-04T14:58:35.653Z,49.60
2018-05-04T15:01:04.027Z,50.00
2018-05-04T15:03:32.639Z,49.80
2018-05-04T15:06:01.085Z,49.80
2018-05-04T15:08:29.394Z,50.10
2018-05-04T15:10:57.867Z,49.80
2018-05-04T15:13:26.121Z,50.00
2018-05-04T15:15:54.469Z,50.00
2018-05-04T15:18:22.663Z,50.40
2018-05-04T15:20:51.342Z,50.60
2018-05-04T15:23:19.739Z,50.50
2018-05-04T15:25:48.106Z,50.40
2018-05-04T15:28:16.492Z,50.30
2018-05-04T15:30:44.759Z,50.60
2018-05-04T15:33:13.458Z,50.50
2018-05-04T15:35:41.733Z,50.60
2018-05-04T15:38:10.306Z,50.60
2018-05-04T15:40:38.994Z,50.70
2018-05-04T15:43:07.350Z,50.90
2018-05-04T15:45:35.753Z,51.00
2018-05-04T15:48:09.865Z,51.10
2018-05-04T15:50:43.829Z,51.10
2018-05-04T15:53:12.866Z,54.40
2018-05-04T15:55:41.578Z,54.40
2018-05-04T15:58:09.955Z,53.90
2018-05-04T16:00:38.322Z,52.80
2018-05-04T16:03:06.583Z,53.20
2018-05-04T16:05:35.077Z,53.30
2018-05-04T16:08:03.480Z,53.20
2018-05-04T16:10:31.742Z,53.10
2018-05-04T16:13:00.155Z,52.80
2018-05-04T16:15:28.602Z,52.70
2018-05-04T16:17:56.905Z,52.70
2018-05-04T16:20:25.346Z,52.80
2018-05-04T16:22:53.621Z,53.00
2018-05-04T16:25:22.129Z,53.00
2018-05-04T16:27:50.429Z,52.80
2018-05-04T16:30:19.585Z,52.80
2018-05-04T16:32:47.871Z,53.00
2018-05-04T16:35:16.272Z,53.60
2018-05-04T16:37:46.294Z,52.80
2018-05-04T16:40:31.935Z,52.80
2018-05-04T16:43:04.522Z,52.80
2018-05-04T16:45:36.294Z,53.10
2018-05-04T16:48:13.465Z,53.20
2018-05-04T16:50:42.145Z,53.00
2018-05-04T16:53:11.681Z,52.80
2018-05-04T16:55:40.615Z,53.00
2018-05-04T16:58:08.887Z,52.80
2018-05-04T17:00:47.192Z,53.00
2018-05-04T17:03:37.504Z,52.80
2018-05-04T17:06:07.437Z,52.90
2018-05-04T17:08:50.114Z,53.00
2018-05-04T17:11:18.394Z,52.90
2018-05-04T17:13:46.741Z,53.20
2018-05-04T17:16:15.058Z,53.50
2018-05-04T17:18:43.477Z,53.50
2018-05-04T17:21:11.891Z,53.40
2018-05-04T17:23:40.194Z,53.40
2018-05-04T17:26:08.642Z,53.90
2018-05-04T17:28:37.014Z,53.60
2018-05-04T17:31:05.443Z,53.70
2018-05-04T17:33:33.721Z,53.90
2018-05-04T17:36:02.098Z,53.60
2018-05-04T17:38:30.443Z,54.60
2018-05-04T17:40:58.858Z,54.10
2018-05-04T17:43:27.533Z,54.70
2018-05-04T17:45:56.214Z,54.80
2018-05-04T17:51:09.913Z,54.60
2018-05-04T17:53:38.542Z,54.60
2018-05-04T17:56:07.226Z,54.40
2018-05-04T17:58:35.927Z,54.60
2018-05-04T18:01:04.985Z,54.70
2018-05-04T18:03:33.261Z,54.60
2018-05-04T18:06:01.553Z,54.60
2018-05-04T18:08:30.039Z,54.70
2018-05-04T18:10:58.484Z,54.10
2018-05-04T18:13:26.912Z,55.00
2018-05-04T18:15:55.241Z,52.50
2018-05-04T18:18:23.618Z,53.60
2018-05-04T18:20:51.954Z,54.30
2018-05-04T18:23:21.010Z,54.00
2018-05-04T18:25:49.284Z,53.90
2018-05-04T18:28:18.439Z,53.60
2018-05-04T18:30:46.973Z,53.60
2018-05-04T18:33:16.205Z,53.40
2018-05-04T18:35:44.518Z,53.10
2018-05-04T18:38:12.815Z,53.00
2018-05-04T18:40:41.185Z,53.00
2018-05-04T18:43:09.557Z,52.90
2018-05-04T18:45:37.873Z,52.60
2018-05-04T18:48:06.582Z,52.50
2018-05-04T18:50:35.922Z,52.50
2018-05-04T18:53:04.351Z,52.50
2018-05-04T18:55:32.638Z,52.30
2018-05-04T18:58:01.015Z,52.30
2018-05-04T19:00:30.060Z,52.10
2018-05-04T19:03:04.111Z,52.00
2018-05-04T19:05:32.629Z,52.00
2018-05-04T19:08:01.089Z,52.00
2018-05-04T19:10:29.369Z,51.90
2018-05-04T19:12:57.747Z,51.70
2018-05-04T19:15:26.206Z,52.40
2018-05-04T19:17:54.550Z,51.90
2018-05-04T19:20:22.933Z,51.90
2018-05-04T19:22:51.264Z,52.30
2018-05-04T19:25:20.302Z,51.80
2018-05-04T19:27:48.581Z,51.70
2018-05-04T19:30:16.957Z,51.70
2018-05-04T19:32:46.054Z,51.60
2018-05-04T19:35:14.421Z,51.60
2018-05-04T19:37:42.832Z,51.50
2018-05-04T19:40:11.151Z,51.50
2018-05-04T19:42:39.623Z,51.40
2018-05-04T19:45:07.892Z,51.40
2018-05-04T19:47:36.952Z,51.80
2018-05-04T19:50:05.323Z,51.20
2018-05-04T19:52:33.603Z,51.20
2018-05-04T19:55:01.871Z,51.00
2018-05-04T19:57:30.237Z,51.10
2018-05-04T19:59:58.521Z,51.00
2018-05-04T20:02:26.905Z,50.90
2018-05-04T20:04:55.301Z,50.90
2018-05-04T20:07:23.578Z,51.40
2018-05-04T20:09:51.872Z,51.20
2018-05-04T20:12:20.361Z,51.70
2018-05-04T20:14:48.676Z,52.20
2018-05-04T20:17:16.951Z,53.00
2018-05-04T20:19:45.254Z,52.40
2018-05-04T20:22:13.921Z,51.90
2018-05-04T20:24:42.189Z,52.40
2018-05-04T20:27:10.471Z,52.30
2018-05-04T20:29:38.785Z,52.40
2018-05-04T20:32:07.181Z,52.00
2018-05-04T20:34:35.482Z,52.30
2018-05-04T20:37:03.878Z,51.60
2018-05-04T20:39:32.153Z,53.70
2018-05-04T20:42:00.658Z,53.10
2018-05-04T20:44:29.075Z,52.50
2018-05-04T20:46:57.429Z,52.50
2018-05-04T20:49:25.829Z,52.50
2018-05-04T20:51:54.199Z,52.90
2018-05-04T20:54:22.567Z,53.10
2018-05-04T20:56:50.937Z,53.80
2018-05-04T20:59:19.223Z,53.60
2018-05-04T21:01:47.668Z,53.80
2018-05-04T21:04:16.713Z,53.90
2018-05-04T21:06:45.019Z,53.90
2018-05-04T21:09:14.061Z,54.50
2018-05-04T21:11:42.463Z,54.10
2018-05-04T21:14:10.728Z,54.00
2018-05-04T21:16:38.993Z,53.70
2018-05-04T21:19:07.278Z,53.60
2018-05-04T21:21:35.671Z,53.60
2018-05-04T21:24:03.975Z,53.40
2018-05-04T21:26:32.425Z,52.30
2018-05-04T21:29:00.731Z,52.60
2018-05-04T21:31:29.001Z,53.10
2018-05-04T21:33:57.563Z,53.50
2018-05-04T21:36:25.984Z,53.80
2018-05-04T21:38:54.284Z,54.10
2018-05-04T21:41:22.558Z,53.40
2018-05-04T21:43:50.826Z,53.40
2018-05-04T21:46:19.094Z,53.20
2018-05-04T21:48:48.452Z,52.70
2018-05-04T21:51:16.826Z,52.70
2018-05-04T21:53:45.094Z,52.90
2018-05-04T21:56:13.523Z,52.90
2018-05-04T21:58:42.557Z,52.60
2018-05-04T22:01:10.947Z,52.70
2018-05-04T22:03:39.313Z,53.20
2018-05-04T22:06:07.799Z,52.50
2018-05-04T22:08:36.107Z,52.40
2018-05-04T22:11:04.374Z,52.30
2018-05-04T22:13:32.890Z,52.30
2018-05-04T22:16:01.235Z,52.20
2018-05-04T22:18:29.641Z,52.00
2018-05-04T22:20:57.922Z,52.10
2018-05-04T22:23:26.304Z,51.80
2018-05-04T22:25:54.731Z,51.70
2018-05-04T22:28:23.051Z,52.20
2018-05-04T22:30:51.314Z,51.60
2018-05-04T22:33:19.839Z,51.60
2018-05-04T22:35:48.979Z,51.20
2018-05-04T22:38:17.261Z,51.20
2018-05-04T22:40:45.517Z,51.20
2018-05-04T22:43:13.802Z,51.20
2018-05-04T22:45:42.342Z,51.10
2018-05-04T22:48:10.775Z,51.10
2018-05-04T22:50:39.038Z,51.00
2018-05-04T22:53:07.517Z,50.90
2018-05-04T22:55:35.894Z,50.80
2018-05-04T22:58:04.287Z,50.80
2018-05-04T23:00:32.653Z,50.70
2018-05-04T23:03:00.937Z,50.70
2018-05-04T23:05:29.398Z,50.60
2018-05-04T23:07:58.040Z,50.60
2018-05-04T23:10:26.481Z,50.60
2018-05-04T23:12:54.751Z,50.50
2018-05-04T23:15:23.025Z,50.50
2018-05-04T23:17:51.306Z,50.50
2018-05-04T23:20:19.707Z,50.50
2018-05-04T23:22:48.047Z,50.40
2018-05-04T23:25:16.462Z,50.50
2018-05-04T23:27:44.814Z,50.40
2018-05-04T23:30:12.993Z,50.40
2018-05-04T23:32:41.285Z,50.30
2018-05-04T23:35:09.650Z,50.20
2018-05-04T23:37:38.067Z,50.10
2018-05-04T23:40:06.434Z,50.30
2018-05-04T23:42:34.811Z,50.10
2018-05-04T23:45:03.181Z,50.10
2018-05-04T23:47:32.304Z,50.10
2018-05-04T23:50:00.581Z,50.10
2018-05-04T23:52:28.951Z,50.10
2018-05-04T23:54:57.242Z,50.10
2018-05-04T23:57:26.021Z,50.20
2018-05-04T23:59:54.367Z,50.10
